Time;durP1;ratioP1;P1;durP2;ratioP2;P2;SDS_P1;SDS_P2;PMS_P1;PMS_P2;Temp;Humidity;BMP_temperature;BMP_pressure;BME280_temperature;BME280_humidity;BME280_pressure;Samples;Min_cycle;Max_cycle;Signal;HPM_P1;HPM_P2
2021/10/29 00:01:18;;;;;;;3.92;2.90;;;;;;;;;;4978118;28;20041;-72
2021/10/29 00:04:02;;;;;;;4.03;2.65;;;;;;;;;;5000198;28;20119;-72
2021/10/29 00:06:47;;;;;;;4.32;2.90;;;;;;;;;;4984102;28;20508;-72
2021/10/29 00:09:32;;;;;;;3.63;2.90;;;;;;;;;;4988329;28;20688;-72
2021/10/29 00:12:18;;;;;;;3.88;2.85;;;;;;;;;;4999384;28;20053;-72
2021/10/29 00:15:04;;;;;;;3.75;2.70;;;;;;;;;;5000572;28;20492;-72
2021/10/29 00:17:49;;;;;;;3.63;2.47;;;;;;;;;;4989350;28;20103;-72
2021/10/29 00:20:33;;;;;;;4.47;2.67;;;;;;;;;;5003989;28;20088;-72
2021/10/29 00:23:19;;;;;;;3.95;2.72;;;;;;;;;;4980339;28;20041;-73
2021/10/29 00:26:03;;;;;;;4.82;2.60;;;;;;;;;;4979233;28;20498;-73
2021/10/29 00:28:48;;;;;;;4.18;2.83;;;;;;;;;;4971758;28;20452;-73
2021/10/29 00:31:32;;;;;;;4.05;2.58;;;;;;;;;;4987027;28;20065;-73
2021/10/29 00:34:17;;;;;;;4.70;2.80;;;;;;;;;;4996971;28;20045;-72
2021/10/29 00:37:01;;;;;;;4.00;2.35;;;;;;;;;;4992515;28;20777;-72
2021/10/29 00:39:46;;;;;;;3.90;2.67;;;;;;;;;;4985632;28;20069;-72
2021/10/29 00:42:31;;;;;;;4.03;2.67;;;;;;;;;;4994579;28;20115;-71
2021/10/29 00:45:15;;;;;;;4.47;2.60;;;;;;;;;;4999264;28;20454;-72
2021/10/29 00:48:00;;;;;;;3.53;2.40;;;;;;;;;;4964486;28;20107;-71
2021/10/29 00:50:44;;;;;;;3.40;2.50;;;;;;;;;;5003111;28;20044;-72
2021/10/29 00:53:30;;;;;;;4.45;2.60;;;;;;;;;;4985441;28;20581;-72
2021/10/29 00:56:15;;;;;;;4.03;2.47;;;;;;;;;;4991465;28;20451;-72
2021/10/29 00:59:00;;;;;;;6.88;2.97;;;;;;;;;;4997222;28;20491;-72
2021/10/29 01:01:45;;;;;;;3.10;2.50;;;;;;;;;;5018979;28;20072;-73
2021/10/29 01:04:29;;;;;;;3.65;2.60;;;;;;;;;;5004713;28;20049;-73
2021/10/29 01:07:14;;;;;;;3.85;2.45;;;;;;;;;;4994999;28;20068;-73
2021/10/29 01:09:58;;;;;;;4.43;2.88;;;;;;;;;;5003172;28;20465;-72
2021/10/29 01:12:42;;;;;;;4.30;2.90;;;;;;;;;;5009396;28;20758;-72
2021/10/29 01:15:27;;;;;;;4.45;2.72;;;;;;;;;;5023347;28;20040;-74
2021/10/29 01:18:11;;;;;;;4.93;2.90;;;;;;;;;;5007488;28;20045;-74
2021/10/29 01:20:56;;;;;;;4.30;2.60;;;;;;;;;;4988992;28;20133;-73
2021/10/29 01:23:41;;;;;;;4.22;2.45;;;;;;;;;;5005291;28;20040;-74
2021/10/29 01:26:26;;;;;;;3.72;2.67;;;;;;;;;;4981086;28;20120;-74
2021/10/29 01:29:11;;;;;;;4.10;2.50;;;;;;;;;;4988713;28;20045;-74
2021/10/29 01:31:55;;;;;;;4.22;2.72;;;;;;;;;;4987349;28;20535;-73
2021/10/29 01:34:41;;;;;;;4.13;2.50;;;;;;;;;;4998770;28;20048;-74
2021/10/29 01:37:26;;;;;;;3.88;2.40;;;;;;;;;;5014651;28;20052;-74
2021/10/29 01:40:13;;;;;;;3.95;2.65;;;;;;;;;;5008814;28;20036;-73
2021/10/29 01:42:58;;;;;;;4.30;2.50;;;;;;;;;;4989299;28;20044;-73
2021/10/29 01:45:42;;;;;;;4.28;2.30;;;;;;;;;;4988868;28;20121;-75
2021/10/29 01:48:27;;;;;;;3.70;2.25;;;;;;;;;;5004155;28;20435;-72
2021/10/29 01:51:13;;;;;;;3.00;2.20;;;;;;;;;;4999001;28;20457;-72
2021/10/29 01:53:58;;;;;;;3.50;2.33;;;;;;;;;;5003006;28;20092;-72
2021/10/29 01:56:43;;;;;;;4.38;2.10;;;;;;;;;;4984136;28;20161;-73
2021/10/29 01:59:27;;;;;;;5.05;2.42;;;;;;;;;;4980931;28;20065;-71
2021/10/29 02:02:12;;;;;;;3.00;2.10;;;;;;;;;;4998023;28;20530;-72
2021/10/29 02:04:56;;;;;;;3.90;2.20;;;;;;;;;;5011267;28;20080;-73
2021/10/29 02:07:41;;;;;;;4.55;2.40;;;;;;;;;;5013815;28;20090;-73
2021/10/29 02:10:25;;;;;;;4.20;2.17;;;;;;;;;;5006545;28;20037;-72
2021/10/29 02:13:10;;;;;;;4.05;2.10;;;;;;;;;;5005060;28;20517;-72
2021/10/29 02:15:55;;;;;;;3.22;2.10;;;;;;;;;;4994255;28;20037;-73
2021/10/29 02:18:39;;;;;;;3.97;2.20;;;;;;;;;;4976701;28;20527;-73
2021/10/29 02:21:24;;;;;;;2.78;2.13;;;;;;;;;;5005265;28;20488;-73
2021/10/29 02:24:08;;;;;;;2.90;1.90;;;;;;;;;;5001113;28;20040;-72
2021/10/29 02:26:53;;;;;;;3.70;2.05;;;;;;;;;;4987992;28;20081;-73
2021/10/29 02:29:38;;;;;;;3.75;2.10;;;;;;;;;;5003256;28;20103;-73
2021/10/29 02:32:23;;;;;;;4.20;2.05;;;;;;;;;;5013131;28;20052;-73
2021/10/29 02:35:07;;;;;;;3.47;2.08;;;;;;;;;;5014028;28;20056;-73
2021/10/29 02:37:52;;;;;;;4.32;2.10;;;;;;;;;;5009361;28;20552;-73
2021/10/29 02:40:37;;;;;;;3.78;2.30;;;;;;;;;;5000263;28;20112;-73
2021/10/29 02:43:22;;;;;;;3.63;2.33;;;;;;;;;;4989663;28;20103;-73
2021/10/29 02:46:06;;;;;;;4.88;2.22;;;;;;;;;;4996163;28;20456;-73
2021/10/29 02:48:50;;;;;;;3.60;2.20;;;;;;;;;;5028178;28;20070;-73
2021/10/29 02:51:35;;;;;;;3.55;2.17;;;;;;;;;;5006623;28;20080;-73
2021/10/29 02:54:20;;;;;;;2.78;2.10;;;;;;;;;;5004372;28;20084;-73
2021/10/29 02:57:05;;;;;;;3.58;2.17;;;;;;;;;;5006408;28;20487;-73
